PWSweather.com
Personal Weather Stations
Station Observations
KOMOKA
Komoka Village, Komoka, ON N0L IRO

Komoka VillageKomoka, ON N0L IRO

Lat: 42.9542444, Lon: -81.4348861

Elevation: 805

Station Type: Davis Vantage Pro 2

www.komokaweather.com

High Low Average
Temperature 46.0°F7.8°C 43.9°F6.6°C 44.9°F7.2°C
Dew Point 37.6°F3.1°C 35.4°F1.9°C 36.6°F2.6°C
Winds 8.0 mph 12.9 kmh Calm Calm 3.0 mph N4.8 kmh N
Wind Gusts 16.0 mph25.7 kmh -- 7.0 mph11.3 kmh
Humidity 75% 69% 72%
Pressure 30.22 in1023.4 mb 29.79 in1008.8 mb -
Precipitation 0.35 in8.9 mm - -
Hour Temp Dew Point Humidity Winds Wind Gusts Pressure Precip Precip Rate Daily Precip Total
12:05 AM 46.0°F7.8°C 37.2°F2.9°C 71% 1.0 mph N1.6 kmh N 7.0 mph11.3 kmh 30.17 in1021.7 mb 0.00 in0.0 mm 0.00 in0.0 mm 0.00 in0.0 mm
12:12 AM 46.0°F7.8°C 37.2°F2.9°C 71% 1.0 mph N1.6 kmh N 4.0 mph6.4 kmh 30.18 in1022.0 mb 0.00 in0.0 mm 0.00 in0.0 mm 0.00 in0.0 mm
12:19 AM 46.0°F7.8°C 37.0°F2.8°C 71% 1.0 mph N1.6 kmh N 5.0 mph8.0 kmh 30.18 in1022.0 mb 0.00 in0.0 mm 0.00 in0.0 mm 0.00 in0.0 mm
12:26 AM 45.9°F7.7°C 36.7°F2.6°C 70% 1.0 mph N1.6 kmh N 5.0 mph8.0 kmh 30.18 in1022.0 mb 0.00 in0.0 mm 0.00 in0.0 mm 0.00 in0.0 mm
12:33 AM 45.9°F7.7°C 36.7°F2.6°C 70% 1.0 mph N1.6 kmh N 5.0 mph8.0 kmh 30.18 in1022.0 mb 0.00 in0.0 mm 0.00 in0.0 mm 0.00 in0.0 mm
12:40 AM 45.9°F7.7°C 36.5°F2.5°C 70% 1.0 mph N1.6 kmh N 5.0 mph8.0 kmh 30.18 in1022.0 mb 0.00 in0.0 mm 0.00 in0.0 mm 0.00 in0.0 mm
12:47 AM 45.7°F7.6°C 36.1°F2.3°C 69% 3.0 mph N4.8 kmh N 8.0 mph12.9 kmh 30.17 in1021.7 mb 0.00 in0.0 mm 0.00 in0.0 mm 0.00 in0.0 mm
12:54 AM 45.7°F7.6°C 36.0°F2.2°C 69% 3.0 mph N4.8 kmh N 8.0 mph12.9 kmh 30.17 in1021.7 mb 0.00 in0.0 mm 0.00 in0.0 mm 0.00 in0.0 mm
01:01 AM 45.5°F7.5°C 36.0°F2.2°C 69% 3.0 mph N4.8 kmh N 7.0 mph11.3 kmh 30.18 in1022.0 mb 0.00 in0.0 mm 0.00 in0.0 mm 0.00 in0.0 mm
01:08 AM 45.7°F7.6°C 36.0°F2.2°C 69% 1.0 mph N1.6 kmh N 5.0 mph8.0 kmh 30.18 in1022.0 mb 0.00 in0.0 mm 0.00 in0.0 mm 0.00 in0.0 mm
01:15 AM 45.5°F7.5°C 36.0°F2.2°C 69% 1.0 mph N1.6 kmh N 5.0 mph8.0 kmh 30.18 in1022.0 mb 0.00 in0.0 mm 0.00 in0.0 mm 0.00 in0.0 mm
01:22 AM 45.7°F7.6°C 36.0°F2.2°C 69% 1.0 mph N1.6 kmh N 4.0 mph6.4 kmh 30.19 in1022.4 mb 0.00 in0.0 mm 0.00 in0.0 mm 0.00 in0.0 mm
01:29 AM 45.5°F7.5°C 36.0°F2.2°C 69% 1.0 mph N1.6 kmh N 8.0 mph12.9 kmh 30.18 in1022.0 mb 0.00 in0.0 mm 0.00 in0.0 mm 0.00 in0.0 mm
01:36 AM 45.5°F7.5°C 36.0°F2.2°C 69% 1.0 mph N1.6 kmh N 5.0 mph8.0 kmh 30.19 in1022.4 mb 0.00 in0.0 mm 0.00 in0.0 mm 0.00 in0.0 mm
01:43 AM 45.3°F7.4°C 35.8°F2.1°C 69% 3.0 mph N4.8 kmh N 7.0 mph11.3 kmh 30.18 in1022.0 mb 0.00 in0.0 mm 0.00 in0.0 mm 0.00 in0.0 mm
01:50 AM 45.3°F7.4°C 35.8°F2.1°C 69% 1.0 mph N1.6 kmh N 4.0 mph6.4 kmh 30.18 in1022.0 mb 0.00 in0.0 mm 0.00 in0.0 mm 0.00 in0.0 mm
01:57 AM 45.1°F7.3°C 35.6°F2.0°C 69% Calm Calm 3.0 mph4.8 kmh 30.18 in1022.0 mb 0.00 in0.0 mm 0.00 in0.0 mm 0.00 in0.0 mm
02:04 AM 45.1°F7.3°C 36.0°F2.2°C 70% Calm Calm 3.0 mph4.8 kmh 30.18 in1022.0 mb 0.00 in0.0 mm 0.00 in0.0 mm 0.00 in0.0 mm
02:11 AM 45.1°F7.3°C 36.0°F2.2°C 70% Calm Calm 3.0 mph4.8 kmh 30.18 in1022.0 mb 0.00 in0.0 mm 0.00 in0.0 mm 0.00 in0.0 mm
02:18 AM 45.1°F7.3°C 36.0°F2.2°C 70% Calm Calm -- 30.18 in1022.0 mb 0.00 in0.0 mm 0.00 in0.0 mm 0.00 in0.0 mm
02:25 AM 45.1°F7.3°C 36.0°F2.2°C 70% Calm Calm 1.0 mph1.6 kmh 30.18 in1022.0 mb 0.00 in0.0 mm 0.00 in0.0 mm 0.00 in0.0 mm
02:32 AM 45.1°F7.3°C 36.0°F2.2°C 70% 1.0 mph N1.6 kmh N 4.0 mph6.4 kmh 30.18 in1022.0 mb 0.00 in0.0 mm 0.00 in0.0 mm 0.00 in0.0 mm
02:39 AM 45.1°F7.3°C 36.0°F2.2°C 70% 1.0 mph N1.6 kmh N 4.0 mph6.4 kmh 30.18 in1022.0 mb 0.00 in0.0 mm 0.00 in0.0 mm 0.00 in0.0 mm
02:46 AM 45.1°F7.3°C 36.0°F2.2°C 70% 3.0 mph N4.8 kmh N 7.0 mph11.3 kmh 30.18 in1022.0 mb 0.00 in0.0 mm 0.00 in0.0 mm 0.00 in0.0 mm
02:53 AM 45.0°F7.2°C 35.8°F2.1°C 70% 3.0 mph N4.8 kmh N 8.0 mph12.9 kmh 30.18 in1022.0 mb 0.00 in0.0 mm 0.00 in0.0 mm 0.00 in0.0 mm
03:00 AM 45.0°F7.2°C 35.8°F2.1°C 70% 3.0 mph N4.8 kmh N 8.0 mph12.9 kmh 30.18 in1022.0 mb 0.00 in0.0 mm 0.00 in0.0 mm 0.00 in0.0 mm
03:07 AM 45.0°F7.2°C 35.8°F2.1°C 70% 1.0 mph N1.6 kmh N 5.0 mph8.0 kmh 30.18 in1022.0 mb 0.00 in0.0 mm 0.00 in0.0 mm 0.00 in0.0 mm
03:14 AM 45.0°F7.2°C 35.8°F2.1°C 70% 1.0 mph N1.6 kmh N 5.0 mph8.0 kmh 30.19 in1022.4 mb 0.00 in0.0 mm 0.00 in0.0 mm 0.00 in0.0 mm
03:21 AM 45.0°F7.2°C 35.8°F2.1°C 70% 1.0 mph N1.6 kmh N 4.0 mph6.4 kmh 30.19 in1022.4 mb 0.00 in0.0 mm 0.00 in0.0 mm 0.00 in0.0 mm
03:28 AM 45.0°F7.2°C 35.8°F2.1°C 70% 1.0 mph N1.6 kmh N 4.0 mph6.4 kmh 30.19 in1022.4 mb 0.00 in0.0 mm 0.00 in0.0 mm 0.00 in0.0 mm
03:35 AM 45.0°F7.2°C 35.8°F2.1°C 70% 1.0 mph N1.6 kmh N 4.0 mph6.4 kmh 30.19 in1022.4 mb 0.00 in0.0 mm 0.00 in0.0 mm 0.00 in0.0 mm
03:42 AM 45.0°F7.2°C 35.8°F2.1°C 70% Calm Calm 4.0 mph6.4 kmh 30.18 in1022.0 mb 0.00 in0.0 mm 0.00 in0.0 mm 0.00 in0.0 mm
03:49 AM 45.0°F7.2°C 35.8°F2.1°C 70% Calm Calm 5.0 mph8.0 kmh 30.19 in1022.4 mb 0.00 in0.0 mm 0.00 in0.0 mm 0.00 in0.0 mm
03:56 AM 45.0°F7.2°C 35.4°F1.9°C 69% 1.0 mph N1.6 kmh N 5.0 mph8.0 kmh 30.20 in1022.7 mb 0.00 in0.0 mm 0.00 in0.0 mm 0.00 in0.0 mm
04:03 AM 45.1°F7.3°C 35.6°F2.0°C 69% 1.0 mph N1.6 kmh N 7.0 mph11.3 kmh 30.19 in1022.4 mb 0.00 in0.0 mm 0.00 in0.0 mm 0.00 in0.0 mm
04:10 AM 45.1°F7.3°C 35.6°F2.0°C 69% 1.0 mph N1.6 kmh N 4.0 mph6.4 kmh 30.19 in1022.4 mb 0.00 in0.0 mm 0.00 in0.0 mm 0.00 in0.0 mm
04:17 AM 45.1°F7.3°C 35.6°F2.0°C 69% Calm Calm 1.0 mph1.6 kmh 30.18 in1022.0 mb 0.00 in0.0 mm 0.00 in0.0 mm 0.00 in0.0 mm
04:24 AM 45.1°F7.3°C 36.0°F2.2°C 70% Calm Calm 1.0 mph1.6 kmh 30.19 in1022.4 mb 0.00 in0.0 mm 0.00 in0.0 mm 0.00 in0.0 mm
04:31 AM 45.1°F7.3°C 36.0°F2.2°C 70% Calm Calm 3.0 mph4.8 kmh 30.19 in1022.4 mb 0.00 in0.0 mm 0.00 in0.0 mm 0.00 in0.0 mm
04:38 AM 45.0°F7.2°C 35.8°F2.1°C 70% Calm Calm 3.0 mph4.8 kmh 30.20 in1022.7 mb 0.00 in0.0 mm 0.00 in0.0 mm 0.00 in0.0 mm
04:45 AM 45.1°F7.3°C 36.0°F2.2°C 70% 1.0 mph N1.6 kmh N 4.0 mph6.4 kmh 30.20 in1022.7 mb 0.00 in0.0 mm 0.00 in0.0 mm 0.00 in0.0 mm
04:52 AM 45.0°F7.2°C 35.8°F2.1°C 70% 1.0 mph N1.6 kmh N 4.0 mph6.4 kmh 30.20 in1022.7 mb 0.00 in0.0 mm 0.00 in0.0 mm 0.00 in0.0 mm
04:59 AM 45.0°F7.2°C 35.8°F2.1°C 70% Calm Calm 4.0 mph6.4 kmh 30.20 in1022.7 mb 0.00 in0.0 mm 0.00 in0.0 mm 0.00 in0.0 mm
05:06 AM 45.0°F7.2°C 35.8°F2.1°C 70% Calm Calm 3.0 mph4.8 kmh 30.21 in1023.0 mb 0.00 in0.0 mm 0.00 in0.0 mm 0.00 in0.0 mm
05:13 AM 45.0°F7.2°C 35.8°F2.1°C 70% Calm Calm -- 30.22 in1023.4 mb 0.00 in0.0 mm 0.00 in0.0 mm 0.00 in0.0 mm
05:20 AM 44.8°F7.1°C 35.6°F2.0°C 70% Calm Calm -- 30.22 in1023.4 mb 0.00 in0.0 mm 0.00 in0.0 mm 0.00 in0.0 mm
05:27 AM 44.8°F7.1°C 36.0°F2.2°C 71% Calm Calm 1.0 mph1.6 kmh 30.21 in1023.0 mb 0.00 in0.0 mm 0.00 in0.0 mm 0.00 in0.0 mm
05:34 AM 44.8°F7.1°C 36.0°F2.2°C 71% Calm Calm 5.0 mph8.0 kmh 30.21 in1023.0 mb 0.00 in0.0 mm 0.00 in0.0 mm 0.00 in0.0 mm
05:41 AM 44.8°F7.1°C 36.0°F2.2°C 71% 1.0 mph N1.6 kmh N 4.0 mph6.4 kmh 30.20 in1022.7 mb 0.00 in0.0 mm 0.00 in0.0 mm 0.00 in0.0 mm
05:48 AM 44.6°F7.0°C 35.8°F2.1°C 71% 1.0 mph N1.6 kmh N 5.0 mph8.0 kmh 30.18 in1022.0 mb 0.00 in0.0 mm 0.00 in0.0 mm 0.00 in0.0 mm
05:55 AM 44.8°F7.1°C 36.1°F2.3°C 72% 3.0 mph N4.8 kmh N 8.0 mph12.9 kmh 30.19 in1022.4 mb 0.00 in0.0 mm 0.00 in0.0 mm 0.00 in0.0 mm
06:02 AM 44.8°F7.1°C 36.0°F2.2°C 71% 1.0 mph N1.6 kmh N 4.0 mph6.4 kmh 30.21 in1023.0 mb 0.00 in0.0 mm 0.00 in0.0 mm 0.00 in0.0 mm
06:09 AM 44.8°F7.1°C 36.1°F2.3°C 72% Calm Calm 3.0 mph4.8 kmh 30.20 in1022.7 mb 0.00 in0.0 mm 0.00 in0.0 mm 0.00 in0.0 mm
06:16 AM 44.6°F7.0°C 36.1°F2.3°C 72% Calm Calm 3.0 mph4.8 kmh 30.21 in1023.0 mb 0.00 in0.0 mm 0.00 in0.0 mm 0.00 in0.0 mm
06:23 AM 44.8°F7.1°C 36.1°F2.3°C 72% Calm Calm 1.0 mph1.6 kmh 30.21 in1023.0 mb 0.00 in0.0 mm 0.00 in0.0 mm 0.00 in0.0 mm
06:30 AM 44.4°F6.9°C 36.0°F2.2°C 72% Calm Calm -- 30.20 in1022.7 mb 0.00 in0.0 mm 0.00 in0.0 mm 0.00 in0.0 mm
06:37 AM 44.4°F6.9°C 36.0°F2.2°C 72% Calm Calm 1.0 mph1.6 kmh 30.21 in1023.0 mb 0.00 in0.0 mm 0.00 in0.0 mm 0.00 in0.0 mm
06:44 AM 44.4°F6.9°C 36.0°F2.2°C 72% Calm Calm 1.0 mph1.6 kmh 30.21 in1023.0 mb 0.00 in0.0 mm 0.00 in0.0 mm 0.00 in0.0 mm
06:51 AM 44.6°F7.0°C 36.1°F2.3°C 72% Calm Calm 1.0 mph1.6 kmh 30.21 in1023.0 mb 0.00 in0.0 mm 0.00 in0.0 mm 0.00 in0.0 mm
06:58 AM 44.6°F7.0°C 35.8°F2.1°C 71% Calm Calm -- 30.22 in1023.4 mb 0.00 in0.0 mm 0.00 in0.0 mm 0.00 in0.0 mm
07:05 AM 44.4°F6.9°C 35.6°F2.0°C 71% Calm Calm -- 30.22 in1023.4 mb 0.00 in0.0 mm 0.00 in0.0 mm 0.00 in0.0 mm
07:12 AM 44.4°F6.9°C 36.0°F2.2°C 72% Calm Calm -- 30.21 in1023.0 mb 0.00 in0.0 mm 0.00 in0.0 mm 0.00 in0.0 mm
07:19 AM 44.4°F6.9°C 36.0°F2.2°C 72% Calm Calm -- 30.21 in1023.0 mb 0.00 in0.0 mm 0.00 in0.0 mm 0.00 in0.0 mm
07:26 AM 44.4°F6.9°C 36.0°F2.2°C 72% Calm Calm -- 30.21 in1023.0 mb 0.00 in0.0 mm 0.00 in0.0 mm 0.00 in0.0 mm
07:33 AM 44.4°F6.9°C 36.0°F2.2°C 72% Calm Calm 1.0 mph1.6 kmh 30.20 in1022.7 mb 0.00 in0.0 mm 0.00 in0.0 mm 0.00 in0.0 mm
07:40 AM 44.6°F7.0°C 36.1°F2.3°C 72% Calm Calm 3.0 mph4.8 kmh 30.20 in1022.7 mb 0.00 in0.0 mm 0.00 in0.0 mm 0.00 in0.0 mm
07:47 AM 44.8°F7.1°C 36.1°F2.3°C 72% Calm Calm 1.0 mph1.6 kmh 30.19 in1022.4 mb 0.00 in0.0 mm 0.00 in0.0 mm 0.00 in0.0 mm
07:54 AM 44.8°F7.1°C 36.3°F2.4°C 72% 1.0 mph N1.6 kmh N 3.0 mph4.8 kmh 30.19 in1022.4 mb 0.00 in0.0 mm 0.00 in0.0 mm 0.00 in0.0 mm
08:01 AM 45.0°F7.2°C 36.1°F2.3°C 71% 1.0 mph N1.6 kmh N 3.0 mph4.8 kmh 30.20 in1022.7 mb 0.00 in0.0 mm 0.00 in0.0 mm 0.00 in0.0 mm
08:08 AM 45.1°F7.3°C 36.3°F2.4°C 71% 1.0 mph N1.6 kmh N 4.0 mph6.4 kmh 30.20 in1022.7 mb 0.00 in0.0 mm 0.00 in0.0 mm 0.00 in0.0 mm
08:15 AM 45.1°F7.3°C 36.3°F2.4°C 71% 1.0 mph N1.6 kmh N 4.0 mph6.4 kmh 30.20 in1022.7 mb 0.00 in0.0 mm 0.00 in0.0 mm 0.00 in0.0 mm
08:22 AM 45.3°F7.4°C 36.1°F2.3°C 70% 1.0 mph N1.6 kmh N 3.0 mph4.8 kmh 30.20 in1022.7 mb 0.00 in0.0 mm 0.00 in0.0 mm 0.00 in0.0 mm
08:29 AM 45.3°F7.4°C 36.1°F2.3°C 70% Calm Calm 4.0 mph6.4 kmh 30.20 in1022.7 mb 0.00 in0.0 mm 0.00 in0.0 mm 0.00 in0.0 mm
08:36 AM 45.5°F7.5°C 36.3°F2.4°C 70% Calm Calm 1.0 mph1.6 kmh 30.21 in1023.0 mb 0.00 in0.0 mm 0.00 in0.0 mm 0.00 in0.0 mm
08:43 AM 45.7°F7.6°C 36.3°F2.4°C 70% Calm Calm 1.0 mph1.6 kmh 30.21 in1023.0 mb 0.00 in0.0 mm 0.00 in0.0 mm 0.00 in0.0 mm
08:50 AM 45.7°F7.6°C 36.5°F2.5°C 70% Calm Calm 3.0 mph4.8 kmh 30.20 in1022.7 mb 0.00 in0.0 mm 0.00 in0.0 mm 0.00 in0.0 mm
08:57 AM 45.9°F7.7°C 36.1°F2.3°C 69% Calm Calm 3.0 mph4.8 kmh 30.20 in1022.7 mb 0.00 in0.0 mm 0.00 in0.0 mm 0.00 in0.0 mm
09:04 AM 45.7°F7.6°C 36.1°F2.3°C 69% 1.0 mph N1.6 kmh N 4.0 mph6.4 kmh 30.21 in1023.0 mb 0.00 in0.0 mm 0.00 in0.0 mm 0.00 in0.0 mm
09:11 AM 45.7°F7.6°C 36.1°F2.3°C 69% 1.0 mph N1.6 kmh N 4.0 mph6.4 kmh 30.22 in1023.4 mb 0.00 in0.0 mm 0.00 in0.0 mm 0.00 in0.0 mm
09:18 AM 45.9°F7.7°C 36.1°F2.3°C 69% Calm Calm 1.0 mph1.6 kmh 30.22 in1023.4 mb 0.00 in0.0 mm 0.00 in0.0 mm 0.00 in0.0 mm
09:25 AM 45.7°F7.6°C 36.1°F2.3°C 69% Calm Calm 3.0 mph4.8 kmh 30.22 in1023.4 mb 0.00 in0.0 mm 0.00 in0.0 mm 0.00 in0.0 mm
09:32 AM 45.7°F7.6°C 36.5°F2.5°C 70% Calm Calm 3.0 mph4.8 kmh 30.21 in1023.0 mb 0.00 in0.0 mm 0.00 in0.0 mm 0.00 in0.0 mm
09:39 AM 45.7°F7.6°C 36.3°F2.4°C 70% Calm Calm -- 30.21 in1023.0 mb 0.00 in0.0 mm 0.00 in0.0 mm 0.00 in0.0 mm
09:46 AM 45.7°F7.6°C 36.7°F2.6°C 71% Calm Calm -- 30.20 in1022.7 mb 0.01 in0.3 mm 0.09 in2.3 mm 0.01 in0.3 mm
09:53 AM 45.5°F7.5°C 36.7°F2.6°C 71% Calm Calm -- 30.20 in1022.7 mb 0.01 in0.3 mm 0.00 in0.0 mm 0.01 in0.3 mm
10:00 AM 45.5°F7.5°C 37.0°F2.8°C 72% Calm Calm -- 30.18 in1022.0 mb 0.01 in0.3 mm 0.00 in0.0 mm 0.01 in0.3 mm
10:07 AM 45.3°F7.4°C 36.9°F2.7°C 72% 1.0 mph N1.6 kmh N 8.0 mph12.9 kmh 30.18 in1022.0 mb 0.01 in0.3 mm 0.00 in0.0 mm 0.01 in0.3 mm
10:14 AM 45.1°F7.3°C 36.7°F2.6°C 72% 3.0 mph N4.8 kmh N 8.0 mph12.9 kmh 30.19 in1022.4 mb 0.01 in0.3 mm 0.00 in0.0 mm 0.01 in0.3 mm
10:21 AM 45.1°F7.3°C 36.7°F2.6°C 72% 1.0 mph N1.6 kmh N 4.0 mph6.4 kmh 30.18 in1022.0 mb 0.01 in0.3 mm 0.00 in0.0 mm 0.01 in0.3 mm
10:28 AM 45.1°F7.3°C 36.7°F2.6°C 72% 3.0 mph N4.8 kmh N 7.0 mph11.3 kmh 30.17 in1021.7 mb 0.01 in0.3 mm 0.00 in0.0 mm 0.01 in0.3 mm
10:35 AM 45.1°F7.3°C 36.7°F2.6°C 72% 3.0 mph N4.8 kmh N 5.0 mph8.0 kmh 30.17 in1021.7 mb 0.01 in0.3 mm 0.00 in0.0 mm 0.01 in0.3 mm
10:42 AM 45.1°F7.3°C 36.7°F2.6°C 72% 3.0 mph N4.8 kmh N 5.0 mph8.0 kmh 30.16 in1021.3 mb 0.00 in0.0 mm 0.00 in0.0 mm 0.01 in0.3 mm
10:49 AM 45.1°F7.3°C 36.7°F2.6°C 72% 3.0 mph N4.8 kmh N 7.0 mph11.3 kmh 30.16 in1021.3 mb 0.00 in0.0 mm 0.00 in0.0 mm 0.01 in0.3 mm
10:56 AM 45.1°F7.3°C 36.7°F2.6°C 72% 3.0 mph N4.8 kmh N 7.0 mph11.3 kmh 30.16 in1021.3 mb 0.00 in0.0 mm 0.00 in0.0 mm 0.01 in0.3 mm
11:09 AM 45.3°F7.4°C 36.9°F2.7°C 72% 1.0 mph N1.6 kmh N 5.0 mph8.0 kmh 30.17 in1021.7 mb 0.00 in0.0 mm 0.00 in0.0 mm 0.01 in0.3 mm
11:16 AM 45.3°F7.4°C 36.9°F2.7°C 72% 1.0 mph N1.6 kmh N 5.0 mph8.0 kmh 30.16 in1021.3 mb 0.00 in0.0 mm 0.00 in0.0 mm 0.01 in0.3 mm
11:23 AM 45.3°F7.4°C 36.9°F2.7°C 72% 1.0 mph N1.6 kmh N 5.0 mph8.0 kmh 30.16 in1021.3 mb 0.00 in0.0 mm 0.00 in0.0 mm 0.01 in0.3 mm
11:30 AM 45.3°F7.4°C 36.9°F2.7°C 72% 3.0 mph N4.8 kmh N 5.0 mph8.0 kmh 30.15 in1021.0 mb 0.00 in0.0 mm 0.00 in0.0 mm 0.01 in0.3 mm
11:37 AM 45.3°F7.4°C 36.9°F2.7°C 72% 3.0 mph N4.8 kmh N 4.0 mph6.4 kmh 30.14 in1020.7 mb 0.00 in0.0 mm 0.00 in0.0 mm 0.01 in0.3 mm
11:44 AM 45.5°F7.5°C 37.4°F3.0°C 73% 3.0 mph N4.8 kmh N 7.0 mph11.3 kmh 30.14 in1020.7 mb 0.00 in0.0 mm 0.00 in0.0 mm 0.01 in0.3 mm
11:51 AM 45.5°F7.5°C 37.4°F3.0°C 73% 3.0 mph N4.8 kmh N 5.0 mph8.0 kmh 30.13 in1020.3 mb 0.00 in0.0 mm 0.00 in0.0 mm 0.01 in0.3 mm
11:58 AM 45.5°F7.5°C 37.4°F3.0°C 73% 3.0 mph N4.8 kmh N 5.0 mph8.0 kmh 30.13 in1020.3 mb 0.00 in0.0 mm 0.00 in0.0 mm 0.01 in0.3 mm
12:22 PM 45.3°F7.4°C 37.2°F2.9°C 73% 4.0 mph N6.4 kmh N 9.0 mph14.5 kmh 30.12 in1020.0 mb 0.00 in0.0 mm 0.00 in0.0 mm 0.01 in0.3 mm
12:27 PM 45.3°F7.4°C 37.2°F2.9°C 73% 4.0 mph N6.4 kmh N 9.0 mph14.5 kmh 30.12 in1020.0 mb 0.00 in0.0 mm 0.00 in0.0 mm 0.01 in0.3 mm
12:34 PM 45.3°F7.4°C 36.9°F2.7°C 72% 4.0 mph N6.4 kmh N 9.0 mph14.5 kmh 30.10 in1019.3 mb 0.00 in0.0 mm 0.00 in0.0 mm 0.01 in0.3 mm
12:41 PM 45.3°F7.4°C 36.9°F2.7°C 72% 4.0 mph N6.4 kmh N 11.0 mph17.7 kmh 30.10 in1019.3 mb 0.00 in0.0 mm 0.00 in0.0 mm 0.01 in0.3 mm
12:48 PM 45.3°F7.4°C 36.9°F2.7°C 72% 4.0 mph N6.4 kmh N 11.0 mph17.7 kmh 30.10 in1019.3 mb 0.00 in0.0 mm 0.00 in0.0 mm 0.01 in0.3 mm
12:55 PM 45.3°F7.4°C 37.2°F2.9°C 73% 4.0 mph N6.4 kmh N 11.0 mph17.7 kmh 30.09 in1019.0 mb 0.00 in0.0 mm 0.00 in0.0 mm 0.01 in0.3 mm
01:02 PM 45.3°F7.4°C 37.2°F2.9°C 73% 4.0 mph N6.4 kmh N 11.0 mph17.7 kmh 30.09 in1019.0 mb 0.00 in0.0 mm 0.00 in0.0 mm 0.01 in0.3 mm
01:09 PM 45.5°F7.5°C 37.4°F3.0°C 73% 3.0 mph N4.8 kmh N 9.0 mph14.5 kmh 30.09 in1019.0 mb 0.00 in0.0 mm 0.00 in0.0 mm 0.01 in0.3 mm
01:16 PM 45.1°F7.3°C 37.0°F2.8°C 73% 4.0 mph N6.4 kmh N 9.0 mph14.5 kmh 30.09 in1019.0 mb 0.00 in0.0 mm 0.00 in0.0 mm 0.01 in0.3 mm
01:23 PM 45.1°F7.3°C 37.0°F2.8°C 73% 4.0 mph N6.4 kmh N 7.0 mph11.3 kmh 30.09 in1019.0 mb 0.00 in0.0 mm 0.00 in0.0 mm 0.01 in0.3 mm
01:30 PM 45.1°F7.3°C 37.0°F2.8°C 73% 3.0 mph N4.8 kmh N 5.0 mph8.0 kmh 30.09 in1019.0 mb 0.00 in0.0 mm 0.00 in0.0 mm 0.01 in0.3 mm
01:37 PM 45.1°F7.3°C 37.0°F2.8°C 73% 3.0 mph N4.8 kmh N 7.0 mph11.3 kmh 30.09 in1019.0 mb 0.00 in0.0 mm 0.00 in0.0 mm 0.01 in0.3 mm
01:44 PM 45.3°F7.4°C 37.2°F2.9°C 73% 3.0 mph N4.8 kmh N 8.0 mph12.9 kmh 30.08 in1018.6 mb 0.00 in0.0 mm 0.00 in0.0 mm 0.01 in0.3 mm
01:51 PM 45.1°F7.3°C 37.0°F2.8°C 73% 4.0 mph N6.4 kmh N 8.0 mph12.9 kmh 30.08 in1018.6 mb 0.00 in0.0 mm 0.00 in0.0 mm 0.01 in0.3 mm
01:58 PM 45.1°F7.3°C 37.2°F2.9°C 74% 3.0 mph N4.8 kmh N 5.0 mph8.0 kmh 30.07 in1018.3 mb 0.00 in0.0 mm 0.00 in0.0 mm 0.01 in0.3 mm
02:05 PM 45.0°F7.2°C 37.2°F2.9°C 74% 4.0 mph N6.4 kmh N 8.0 mph12.9 kmh 30.07 in1018.3 mb 0.00 in0.0 mm 0.00 in0.0 mm 0.01 in0.3 mm
02:12 PM 45.1°F7.3°C 37.2°F2.9°C 74% 4.0 mph N6.4 kmh N 8.0 mph12.9 kmh 30.06 in1017.9 mb 0.00 in0.0 mm 0.00 in0.0 mm 0.01 in0.3 mm
02:19 PM 45.1°F7.3°C 37.2°F2.9°C 74% 3.0 mph N4.8 kmh N 8.0 mph12.9 kmh 30.06 in1017.9 mb 0.00 in0.0 mm 0.00 in0.0 mm 0.01 in0.3 mm
02:26 PM 45.1°F7.3°C 37.4°F3.0°C 74% 3.0 mph N4.8 kmh N 8.0 mph12.9 kmh 30.06 in1017.9 mb 0.00 in0.0 mm 0.00 in0.0 mm 0.01 in0.3 mm
02:33 PM 45.3°F7.4°C 37.6°F3.1°C 74% 4.0 mph N6.4 kmh N 8.0 mph12.9 kmh 30.06 in1017.9 mb 0.00 in0.0 mm 0.00 in0.0 mm 0.01 in0.3 mm
02:40 PM 45.1°F7.3°C 37.4°F3.0°C 74% 4.0 mph N6.4 kmh N 8.0 mph12.9 kmh 30.06 in1017.9 mb 0.00 in0.0 mm 0.00 in0.0 mm 0.01 in0.3 mm
02:47 PM 45.1°F7.3°C 37.2°F2.9°C 74% 5.0 mph N8.0 kmh N 9.0 mph14.5 kmh 30.05 in1017.6 mb 0.00 in0.0 mm 0.00 in0.0 mm 0.01 in0.3 mm
02:54 PM 45.1°F7.3°C 37.4°F3.0°C 74% 4.0 mph N6.4 kmh N 9.0 mph14.5 kmh 30.05 in1017.6 mb 0.00 in0.0 mm 0.00 in0.0 mm 0.01 in0.3 mm
03:01 PM 45.1°F7.3°C 37.2°F2.9°C 74% 5.0 mph N8.0 kmh N 15.0 mph24.1 kmh 30.04 in1017.3 mb 0.00 in0.0 mm 0.00 in0.0 mm 0.01 in0.3 mm
03:08 PM 45.1°F7.3°C 37.4°F3.0°C 74% 4.0 mph N6.4 kmh N 8.0 mph12.9 kmh 30.04 in1017.3 mb 0.00 in0.0 mm 0.00 in0.0 mm 0.01 in0.3 mm
03:15 PM 45.1°F7.3°C 37.4°F3.0°C 74% 4.0 mph N6.4 kmh N 9.0 mph14.5 kmh 30.04 in1017.3 mb 0.00 in0.0 mm 0.00 in0.0 mm 0.01 in0.3 mm
03:22 PM 45.1°F7.3°C 37.2°F2.9°C 74% 5.0 mph N8.0 kmh N 13.0 mph20.9 kmh 30.03 in1016.9 mb 0.00 in0.0 mm 0.00 in0.0 mm 0.01 in0.3 mm
03:29 PM 45.1°F7.3°C 37.4°F3.0°C 74% 4.0 mph N6.4 kmh N 12.0 mph19.3 kmh 30.02 in1016.6 mb 0.01 in0.3 mm 0.09 in2.3 mm 0.02 in0.5 mm
03:36 PM 45.1°F7.3°C 37.2°F2.9°C 74% 5.0 mph N8.0 kmh N 13.0 mph20.9 kmh 30.02 in1016.6 mb 0.01 in0.3 mm 0.00 in0.0 mm 0.02 in0.5 mm
03:43 PM 45.0°F7.2°C 37.2°F2.9°C 74% 4.0 mph N6.4 kmh N 13.0 mph20.9 kmh 30.02 in1016.6 mb 0.02 in0.5 mm 0.09 in2.3 mm 0.02 in0.5 mm
03:50 PM 45.0°F7.2°C 37.2°F2.9°C 74% 4.0 mph N6.4 kmh N 9.0 mph14.5 kmh 30.02 in1016.6 mb 0.02 in0.5 mm 0.00 in0.0 mm 0.02 in0.5 mm
03:57 PM 45.0°F7.2°C 37.0°F2.8°C 74% 4.0 mph N6.4 kmh N 8.0 mph12.9 kmh 30.01 in1016.3 mb 0.02 in0.5 mm 0.00 in0.0 mm 0.02 in0.5 mm
04:04 PM 45.0°F7.2°C 37.2°F2.9°C 74% 4.0 mph N6.4 kmh N 8.0 mph12.9 kmh 30.01 in1016.3 mb 0.02 in0.5 mm 0.00 in0.0 mm 0.03 in0.8 mm
04:11 PM 45.0°F7.2°C 37.0°F2.8°C 74% 4.0 mph N6.4 kmh N 7.0 mph11.3 kmh 30.00 in1015.9 mb 0.03 in0.8 mm 0.09 in2.3 mm 0.04 in1.0 mm
04:18 PM 44.8°F7.1°C 36.9°F2.7°C 74% 4.0 mph N6.4 kmh N 11.0 mph17.7 kmh 30.00 in1015.9 mb 0.04 in1.0 mm 0.09 in2.3 mm 0.05 in1.3 mm
04:25 PM 44.8°F7.1°C 36.9°F2.7°C 74% 5.0 mph N8.0 kmh N 11.0 mph17.7 kmh 30.00 in1015.9 mb 0.03 in0.8 mm 0.00 in0.0 mm 0.05 in1.3 mm
04:32 PM 44.8°F7.1°C 36.9°F2.7°C 74% 4.0 mph N6.4 kmh N 8.0 mph12.9 kmh 30.00 in1015.9 mb 0.04 in1.0 mm 0.09 in2.3 mm 0.06 in1.5 mm
04:39 PM 44.8°F7.1°C 37.2°F2.9°C 75% 4.0 mph N6.4 kmh N 7.0 mph11.3 kmh 30.00 in1015.9 mb 0.04 in1.0 mm 0.00 in0.0 mm 0.06 in1.5 mm
04:46 PM 44.8°F7.1°C 36.9°F2.7°C 74% 4.0 mph N6.4 kmh N 12.0 mph19.3 kmh 30.00 in1015.9 mb 0.04 in1.0 mm 0.00 in0.0 mm 0.06 in1.5 mm
04:53 PM 44.6°F7.0°C 37.2°F2.9°C 75% 5.0 mph N8.0 kmh N 12.0 mph19.3 kmh 29.99 in1015.6 mb 0.05 in1.3 mm 0.09 in2.3 mm 0.07 in1.8 mm
05:00 PM 44.8°F7.1°C 37.2°F2.9°C 75% 4.0 mph N6.4 kmh N 8.0 mph12.9 kmh 29.99 in1015.6 mb 0.04 in1.0 mm 0.00 in0.0 mm 0.07 in1.8 mm
05:07 PM 44.4°F6.9°C 37.0°F2.8°C 75% 5.0 mph N8.0 kmh N 13.0 mph20.9 kmh 29.99 in1015.6 mb 0.04 in1.0 mm 0.00 in0.0 mm 0.08 in2.0 mm
05:14 PM 44.4°F6.9°C 37.0°F2.8°C 75% 4.0 mph N6.4 kmh N 12.0 mph19.3 kmh 29.99 in1015.6 mb 0.05 in1.3 mm 0.09 in2.3 mm 0.09 in2.3 mm
05:21 PM 44.4°F6.9°C 37.0°F2.8°C 75% 4.0 mph N6.4 kmh N 8.0 mph12.9 kmh 29.99 in1015.6 mb 0.04 in1.0 mm 0.00 in0.0 mm 0.09 in2.3 mm
05:29 PM 44.4°F6.9°C 37.0°F2.8°C 75% 4.0 mph N6.4 kmh N 8.0 mph12.9 kmh 29.99 in1015.6 mb 0.05 in1.3 mm 0.08 in2.0 mm 0.10 in2.5 mm
05:37 PM 44.4°F6.9°C 37.0°F2.8°C 75% 4.0 mph N6.4 kmh N 8.0 mph12.9 kmh 29.98 in1015.2 mb 0.06 in1.5 mm 0.08 in2.0 mm 0.11 in2.8 mm
05:42 PM 44.4°F6.9°C 37.0°F2.8°C 75% 4.0 mph N6.4 kmh N 8.0 mph12.9 kmh 29.98 in1015.2 mb 0.05 in1.3 mm 0.00 in0.0 mm 0.11 in2.8 mm
05:52 PM 44.4°F6.9°C 37.0°F2.8°C 75% 5.0 mph N8.0 kmh N 9.0 mph14.5 kmh 29.97 in1014.9 mb 0.06 in1.5 mm 0.06 in1.5 mm 0.13 in3.3 mm
05:59 PM 44.4°F6.9°C 36.7°F2.6°C 74% 5.0 mph N8.0 kmh N 8.0 mph12.9 kmh 29.97 in1014.9 mb 0.06 in1.5 mm 0.00 in0.0 mm 0.13 in3.3 mm
06:06 PM 44.4°F6.9°C 36.7°F2.6°C 74% 5.0 mph N8.0 kmh N 9.0 mph14.5 kmh 29.97 in1014.9 mb 0.06 in1.5 mm 0.00 in0.0 mm 0.13 in3.3 mm
06:13 PM 44.4°F6.9°C 36.7°F2.6°C 74% 5.0 mph N8.0 kmh N 15.0 mph24.1 kmh 29.96 in1014.6 mb 0.06 in1.5 mm 0.00 in0.0 mm 0.14 in3.6 mm
06:20 PM 44.2°F6.8°C 36.9°F2.7°C 75% 5.0 mph N8.0 kmh N 15.0 mph24.1 kmh 29.95 in1014.2 mb 0.05 in1.3 mm 0.00 in0.0 mm 0.15 in3.8 mm
06:27 PM 44.2°F6.8°C 36.9°F2.7°C 75% 5.0 mph N8.0 kmh N 13.0 mph20.9 kmh 29.95 in1014.2 mb 0.06 in1.5 mm 0.09 in2.3 mm 0.16 in4.1 mm
06:34 PM 44.2°F6.8°C 36.9°F2.7°C 75% 5.0 mph N8.0 kmh N 13.0 mph20.9 kmh 29.95 in1014.2 mb 0.05 in1.3 mm 0.00 in0.0 mm 0.16 in4.1 mm
06:41 PM 44.2°F6.8°C 36.9°F2.7°C 75% 5.0 mph N8.0 kmh N 16.0 mph25.7 kmh 29.95 in1014.2 mb 0.05 in1.3 mm 0.00 in0.0 mm 0.17 in4.3 mm
06:48 PM 44.2°F6.8°C 36.9°F2.7°C 75% 7.0 mph N11.3 kmh N 16.0 mph25.7 kmh 29.94 in1013.9 mb 0.06 in1.5 mm 0.09 in2.3 mm 0.17 in4.3 mm
06:55 PM 44.2°F6.8°C 36.9°F2.7°C 75% 5.0 mph N8.0 kmh N 15.0 mph24.1 kmh 29.93 in1013.5 mb 0.05 in1.3 mm 0.00 in0.0 mm 0.17 in4.3 mm
07:02 PM 44.2°F6.8°C 36.9°F2.7°C 75% 5.0 mph N8.0 kmh N 12.0 mph19.3 kmh 29.93 in1013.5 mb 0.05 in1.3 mm 0.00 in0.0 mm 0.18 in4.6 mm
07:09 PM 44.2°F6.8°C 36.9°F2.7°C 75% 5.0 mph N8.0 kmh N 13.0 mph20.9 kmh 29.92 in1013.2 mb 0.04 in1.0 mm 0.00 in0.0 mm 0.18 in4.6 mm
07:16 PM 44.2°F6.8°C 36.9°F2.7°C 75% 5.0 mph N8.0 kmh N 13.0 mph20.9 kmh 29.92 in1013.2 mb 0.04 in1.0 mm 0.00 in0.0 mm 0.19 in4.8 mm
07:23 PM 44.1°F6.7°C 36.7°F2.6°C 75% 7.0 mph N11.3 kmh N 15.0 mph24.1 kmh 29.91 in1012.9 mb 0.04 in1.0 mm 0.00 in0.0 mm 0.19 in4.8 mm
07:30 PM 44.1°F6.7°C 36.7°F2.6°C 75% 5.0 mph N8.0 kmh N 12.0 mph19.3 kmh 29.91 in1012.9 mb 0.04 in1.0 mm 0.00 in0.0 mm 0.20 in5.1 mm
07:37 PM 44.1°F6.7°C 36.5°F2.5°C 75% 4.0 mph N6.4 kmh N 9.0 mph14.5 kmh 29.91 in1012.9 mb 0.03 in0.8 mm 0.00 in0.0 mm 0.20 in5.1 mm
07:44 PM 44.1°F6.7°C 36.5°F2.5°C 75% 4.0 mph N6.4 kmh N 11.0 mph17.7 kmh 29.91 in1012.9 mb 0.03 in0.8 mm 0.00 in0.0 mm 0.20 in5.1 mm
07:51 PM 44.1°F6.7°C 36.5°F2.5°C 75% 4.0 mph N6.4 kmh N 12.0 mph19.3 kmh 29.90 in1012.5 mb 0.05 in1.3 mm 0.17 in4.3 mm 0.22 in5.6 mm
07:58 PM 44.1°F6.7°C 36.5°F2.5°C 75% 7.0 mph N11.3 kmh N 15.0 mph24.1 kmh 29.90 in1012.5 mb 0.06 in1.5 mm 0.09 in2.3 mm 0.24 in6.1 mm
08:05 PM 43.9°F6.6°C 36.5°F2.5°C 75% 5.0 mph N8.0 kmh N 12.0 mph19.3 kmh 29.90 in1012.5 mb 0.06 in1.5 mm 0.00 in0.0 mm 0.24 in6.1 mm
08:12 PM 44.1°F6.7°C 36.5°F2.5°C 75% 4.0 mph N6.4 kmh N 9.0 mph14.5 kmh 29.89 in1012.2 mb 0.06 in1.5 mm 0.00 in0.0 mm 0.25 in6.4 mm
08:19 PM 44.1°F6.7°C 36.5°F2.5°C 75% 5.0 mph N8.0 kmh N 13.0 mph20.9 kmh 29.89 in1012.2 mb 0.07 in1.8 mm 0.09 in2.3 mm 0.26 in6.6 mm
08:26 PM 44.1°F6.7°C 36.5°F2.5°C 75% 5.0 mph N8.0 kmh N 9.0 mph14.5 kmh 29.89 in1012.2 mb 0.08 in2.0 mm 0.09 in2.3 mm 0.27 in6.9 mm
08:33 PM 44.1°F6.7°C 36.7°F2.6°C 75% 4.0 mph N6.4 kmh N 8.0 mph12.9 kmh 29.88 in1011.9 mb 0.07 in1.8 mm 0.00 in0.0 mm 0.27 in6.9 mm
08:40 PM 44.1°F6.7°C 36.7°F2.6°C 75% 5.0 mph N8.0 kmh N 9.0 mph14.5 kmh 29.88 in1011.9 mb 0.06 in1.5 mm 0.00 in0.0 mm 0.28 in7.1 mm
08:47 PM 44.1°F6.7°C 36.5°F2.5°C 75% 4.0 mph N6.4 kmh N 12.0 mph19.3 kmh 29.88 in1011.9 mb 0.06 in1.5 mm 0.00 in0.0 mm 0.28 in7.1 mm
08:54 PM 44.1°F6.7°C 36.7°F2.6°C 75% 5.0 mph N8.0 kmh N 13.0 mph20.9 kmh 29.87 in1011.5 mb 0.06 in1.5 mm 0.00 in0.0 mm 0.28 in7.1 mm
09:01 PM 44.1°F6.7°C 36.7°F2.6°C 75% 7.0 mph N11.3 kmh N 12.0 mph19.3 kmh 29.86 in1011.2 mb 0.06 in1.5 mm 0.00 in0.0 mm 0.29 in7.4 mm
09:08 PM 44.1°F6.7°C 36.7°F2.6°C 75% 5.0 mph N8.0 kmh N 12.0 mph19.3 kmh 29.86 in1011.2 mb 0.04 in1.0 mm 0.00 in0.0 mm 0.29 in7.4 mm
09:15 PM 44.2°F6.8°C 36.9°F2.7°C 75% 4.0 mph N6.4 kmh N 13.0 mph20.9 kmh 29.86 in1011.2 mb 0.04 in1.0 mm 0.00 in0.0 mm 0.30 in7.6 mm
09:22 PM 44.1°F6.7°C 36.7°F2.6°C 75% 4.0 mph N6.4 kmh N 13.0 mph20.9 kmh 29.86 in1011.2 mb 0.05 in1.3 mm 0.09 in2.3 mm 0.31 in7.9 mm
09:29 PM 44.2°F6.8°C 36.9°F2.7°C 75% 5.0 mph N8.0 kmh N 12.0 mph19.3 kmh 29.85 in1010.8 mb 0.05 in1.3 mm 0.00 in0.0 mm 0.31 in7.9 mm
09:36 PM 44.2°F6.8°C 36.9°F2.7°C 75% 5.0 mph N8.0 kmh N 12.0 mph19.3 kmh 29.85 in1010.8 mb 0.05 in1.3 mm 0.00 in0.0 mm 0.31 in7.9 mm
09:43 PM 44.2°F6.8°C 36.9°F2.7°C 75% 5.0 mph N8.0 kmh N 13.0 mph20.9 kmh 29.84 in1010.5 mb 0.05 in1.3 mm 0.00 in0.0 mm 0.32 in8.1 mm
09:50 PM 44.2°F6.8°C 36.9°F2.7°C 75% 4.0 mph N6.4 kmh N 8.0 mph12.9 kmh 29.84 in1010.5 mb 0.05 in1.3 mm 0.00 in0.0 mm 0.32 in8.1 mm
09:57 PM 44.2°F6.8°C 36.9°F2.7°C 75% 5.0 mph N8.0 kmh N 15.0 mph24.1 kmh 29.83 in1010.2 mb 0.03 in0.8 mm 0.00 in0.0 mm 0.32 in8.1 mm
10:04 PM 44.2°F6.8°C 36.9°F2.7°C 75% 7.0 mph N11.3 kmh N 15.0 mph24.1 kmh 29.83 in1010.2 mb 0.03 in0.8 mm 0.00 in0.0 mm 0.32 in8.1 mm
10:11 PM 44.2°F6.8°C 36.9°F2.7°C 75% 8.0 mph N12.9 kmh N 15.0 mph24.1 kmh 29.82 in1009.8 mb 0.02 in0.5 mm 0.00 in0.0 mm 0.32 in8.1 mm
10:18 PM 44.2°F6.8°C 36.9°F2.7°C 75% 7.0 mph N11.3 kmh N 15.0 mph24.1 kmh 29.82 in1009.8 mb 0.02 in0.5 mm 0.00 in0.0 mm 0.32 in8.1 mm
10:25 PM 44.4°F6.9°C 37.0°F2.8°C 75% 5.0 mph N8.0 kmh N 15.0 mph24.1 kmh 29.82 in1009.8 mb 0.01 in0.3 mm 0.00 in0.0 mm 0.32 in8.1 mm
10:32 PM 44.4°F6.9°C 37.0°F2.8°C 75% 5.0 mph N8.0 kmh N 12.0 mph19.3 kmh 29.82 in1009.8 mb 0.01 in0.3 mm 0.00 in0.0 mm 0.32 in8.1 mm
10:39 PM 44.4°F6.9°C 37.0°F2.8°C 75% 4.0 mph N6.4 kmh N 9.0 mph14.5 kmh 29.82 in1009.8 mb 0.02 in0.5 mm 0.09 in2.3 mm 0.33 in8.4 mm
10:46 PM 44.4°F6.9°C 37.0°F2.8°C 75% 4.0 mph N6.4 kmh N 12.0 mph19.3 kmh 29.81 in1009.5 mb 0.02 in0.5 mm 0.00 in0.0 mm 0.34 in8.6 mm
10:53 PM 44.4°F6.9°C 37.0°F2.8°C 75% 4.0 mph N6.4 kmh N 13.0 mph20.9 kmh 29.81 in1009.5 mb 0.02 in0.5 mm 0.00 in0.0 mm 0.35 in8.9 mm
11:00 PM 44.6°F7.0°C 37.2°F2.9°C 75% 4.0 mph N6.4 kmh N 8.0 mph12.9 kmh 29.80 in1009.1 mb 0.02 in0.5 mm 0.00 in0.0 mm 0.20 in5.1 mm
11:07 PM 44.6°F7.0°C 37.2°F2.9°C 75% 4.0 mph N6.4 kmh N 8.0 mph12.9 kmh 29.80 in1009.1 mb 0.02 in0.5 mm 0.00 in0.0 mm 0.20 in5.1 mm
11:14 PM 44.6°F7.0°C 37.2°F2.9°C 75% 4.0 mph N6.4 kmh N 8.0 mph12.9 kmh 29.80 in1009.1 mb 0.02 in0.5 mm 0.00 in0.0 mm 0.20 in5.1 mm
11:21 PM 44.6°F7.0°C 37.2°F2.9°C 75% 4.0 mph N6.4 kmh N 8.0 mph12.9 kmh 29.80 in1009.1 mb 0.02 in0.5 mm 0.00 in0.0 mm 0.20 in5.1 mm
11:28 PM 44.6°F7.0°C 37.2°F2.9°C 75% 3.0 mph N4.8 kmh N 8.0 mph12.9 kmh 29.80 in1009.1 mb 0.02 in0.5 mm 0.00 in0.0 mm 0.20 in5.1 mm
11:35 PM 44.8°F7.1°C 37.2°F2.9°C 75% 1.0 mph N1.6 kmh N 7.0 mph11.3 kmh 29.80 in1009.1 mb 0.03 in0.8 mm 0.09 in2.3 mm 0.02 in0.5 mm
11:42 PM 44.8°F7.1°C 37.2°F2.9°C 75% Calm Calm 3.0 mph4.8 kmh 29.80 in1009.1 mb 0.03 in0.8 mm 0.00 in0.0 mm 0.02 in0.5 mm
11:49 PM 44.6°F7.0°C 37.2°F2.9°C 75% 1.0 mph N1.6 kmh N 4.0 mph6.4 kmh 29.80 in1009.1 mb 0.05 in1.3 mm 0.17 in4.3 mm 0.04 in1.0 mm
11:56 PM 44.6°F7.0°C 37.2°F2.9°C 75% 1.0 mph N1.6 kmh N 5.0 mph8.0 kmh 29.79 in1008.8 mb 0.05 in1.3 mm 0.00 in0.0 mm 0.05 in1.3 mm